Terminal Aerodrome Forecast
Issued by NWS Wilmington, OH

Current Version | Previous Version | Graphics & Text | Print | Product List | Glossary On
Versions: 1 2 3 4 5 6 7 8 9 10 11 12 13 14 15 16 17 18 19
000
FTUS41 KILN 182300
TAFCMH
TAF
KCMH 182331Z 1900/1924 VRB04KT P6SM SCT040 BKN100
     FM190100 VRB03KT P6SM SCT250
     FM190900 00000KT 5SM BR BKN250
     FM191300 20005KT P6SM BKN250
     FM191600 22008KT P6SM BKN050=

USA.gov is the U.S. government's official web portal to all federal, state and local government web resources and services.